sensor_id;sensor_type;location;lat;lon;timestamp;P1;durP1;ratioP1;P2;durP2;ratioP2
11596;SDS011;5854;48.072;16.286;2023-11-19T00:02:01;3.22;;;3.03;;
11596;SDS011;5854;48.072;16.286;2023-11-19T00:04:28;1.92;;;1.83;;
11596;SDS011;5854;48.072;16.286;2023-11-19T00:06:55;10.30;;;2.03;;
11596;SDS011;5854;48.072;16.286;2023-11-19T00:09:27;1.80;;;1.67;;
11596;SDS011;5854;48.072;16.286;2023-11-19T00:11:56;2.10;;;2.00;;
11596;SDS011;5854;48.072;16.286;2023-11-19T00:14:25;2.53;;;1.63;;
11596;SDS011;5854;48.072;16.286;2023-11-19T00:16:55;2.67;;;1.70;;
11596;SDS011;5854;48.072;16.286;2023-11-19T00:19:22;1.58;;;1.48;;
11596;SDS011;5854;48.072;16.286;2023-11-19T00:21:49;1.98;;;1.88;;
11596;SDS011;5854;48.072;16.286;2023-11-19T00:24:17;1.70;;;1.60;;
11596;SDS011;5854;48.072;16.286;2023-11-19T00:26:45;2.53;;;2.33;;
11596;SDS011;5854;48.072;16.286;2023-11-19T00:29:14;2.03;;;1.92;;
11596;SDS011;5854;48.072;16.286;2023-11-19T00:31:43;2.77;;;2.60;;
11596;SDS011;5854;48.072;16.286;2023-11-19T00:34:11;2.55;;;2.35;;
11596;SDS011;5854;48.072;16.286;2023-11-19T00:36:38;2.78;;;2.58;;
11596;SDS011;5854;48.072;16.286;2023-11-19T00:39:05;2.70;;;2.25;;
11596;SDS011;5854;48.072;16.286;2023-11-19T00:41:32;3.53;;;3.22;;
11596;SDS011;5854;48.072;16.286;2023-11-19T00:44:00;4.80;;;4.40;;
11596;SDS011;5854;48.072;16.286;2023-11-19T00:46:31;7.97;;;5.78;;
11596;SDS011;5854;48.072;16.286;2023-11-19T00:48:58;6.55;;;4.85;;
11596;SDS011;5854;48.072;16.286;2023-11-19T00:51:26;4.85;;;4.47;;
11596;SDS011;5854;48.072;16.286;2023-11-19T00:53:53;10.95;;;6.45;;
11596;SDS011;5854;48.072;16.286;2023-11-19T00:56:20;5.68;;;5.15;;
11596;SDS011;5854;48.072;16.286;2023-11-19T00:58:48;6.40;;;5.38;;
11596;SDS011;5854;48.072;16.286;2023-11-19T01:01:15;9.38;;;4.85;;
11596;SDS011;5854;48.072;16.286;2023-11-19T01:03:43;4.35;;;3.95;;
11596;SDS011;5854;48.072;16.286;2023-11-19T01:06:11;4.00;;;3.38;;
11596;SDS011;5854;48.072;16.286;2023-11-19T01:08:39;3.30;;;3.10;;
11596;SDS011;5854;48.072;16.286;2023-11-19T01:11:07;3.15;;;2.95;;
11596;SDS011;5854;48.072;16.286;2023-11-19T01:13:34;3.60;;;3.35;;
11596;SDS011;5854;48.072;16.286;2023-11-19T01:16:01;2.92;;;2.72;;
11596;SDS011;5854;48.072;16.286;2023-11-19T01:18:29;4.03;;;3.63;;
11596;SDS011;5854;48.072;16.286;2023-11-19T01:20:58;3.08;;;2.88;;
11596;SDS011;5854;48.072;16.286;2023-11-19T01:23:25;3.60;;;3.30;;
11596;SDS011;5854;48.072;16.286;2023-11-19T01:25:52;3.67;;;3.42;;
11596;SDS011;5854;48.072;16.286;2023-11-19T01:28:19;3.25;;;3.05;;
11596;SDS011;5854;48.072;16.286;2023-11-19T01:30:47;3.67;;;3.10;;
11596;SDS011;5854;48.072;16.286;2023-11-19T01:33:16;3.53;;;3.20;;
11596;SDS011;5854;48.072;16.286;2023-11-19T01:35:44;4.45;;;3.50;;
11596;SDS011;5854;48.072;16.286;2023-11-19T01:38:12;3.33;;;3.03;;
11596;SDS011;5854;48.072;16.286;2023-11-19T01:40:39;3.55;;;3.25;;
11596;SDS011;5854;48.072;16.286;2023-11-19T01:43:07;3.03;;;2.83;;
11596;SDS011;5854;48.072;16.286;2023-11-19T01:45:36;5.35;;;3.05;;
11596;SDS011;5854;48.072;16.286;2023-11-19T01:48:05;3.47;;;3.17;;
11596;SDS011;5854;48.072;16.286;2023-11-19T01:50:32;3.95;;;3.03;;
11596;SDS011;5854;48.072;16.286;2023-11-19T01:53:00;3.13;;;2.83;;
11596;SDS011;5854;48.072;16.286;2023-11-19T01:55:29;3.13;;;2.92;;
11596;SDS011;5854;48.072;16.286;2023-11-19T01:57:57;2.17;;;2.08;;
11596;SDS011;5854;48.072;16.286;2023-11-19T02:00:27;2.78;;;2.58;;
11596;SDS011;5854;48.072;16.286;2023-11-19T02:02:55;2.63;;;2.47;;
11596;SDS011;5854;48.072;16.286;2023-11-19T02:05:22;1.95;;;1.85;;
11596;SDS011;5854;48.072;16.286;2023-11-19T02:07:49;3.00;;;2.05;;
11596;SDS011;5854;48.072;16.286;2023-11-19T02:10:17;2.25;;;2.15;;
11596;SDS011;5854;48.072;16.286;2023-11-19T02:12:46;2.40;;;2.30;;
11596;SDS011;5854;48.072;16.286;2023-11-19T02:15:13;2.65;;;2.42;;
11596;SDS011;5854;48.072;16.286;2023-11-19T02:17:44;1.98;;;1.88;;
11596;SDS011;5854;48.072;16.286;2023-11-19T02:20:11;3.47;;;3.17;;
11596;SDS011;5854;48.072;16.286;2023-11-19T02:22:40;2.20;;;2.10;;
11596;SDS011;5854;48.072;16.286;2023-11-19T02:25:08;2.33;;;2.22;;
11596;SDS011;5854;48.072;16.286;2023-11-19T02:27:54;3.17;;;2.85;;
11596;SDS011;5854;48.072;16.286;2023-11-19T02:30:25;1.92;;;1.83;;
11596;SDS011;5854;48.072;16.286;2023-11-19T02:32:54;4.90;;;2.75;;
11596;SDS011;5854;48.072;16.286;2023-11-19T02:35:22;2.50;;;2.30;;
11596;SDS011;5854;48.072;16.286;2023-11-19T02:37:49;2.25;;;2.13;;
11596;SDS011;5854;48.072;16.286;2023-11-19T02:40:16;2.80;;;2.70;;
11596;SDS011;5854;48.072;16.286;2023-11-19T02:42:43;2.97;;;2.78;;
11596;SDS011;5854;48.072;16.286;2023-11-19T02:45:12;2.85;;;2.60;;
11596;SDS011;5854;48.072;16.286;2023-11-19T02:47:40;3.65;;;2.40;;
11596;SDS011;5854;48.072;16.286;2023-11-19T02:50:08;2.80;;;2.60;;
11596;SDS011;5854;48.072;16.286;2023-11-19T02:52:39;2.50;;;2.40;;
11596;SDS011;5854;48.072;16.286;2023-11-19T02:55:07;3.10;;;2.90;;
11596;SDS011;5854;48.072;16.286;2023-11-19T02:57:37;3.40;;;3.20;;
11596;SDS011;5854;48.072;16.286;2023-11-19T03:00:06;2.97;;;2.78;;
11596;SDS011;5854;48.072;16.286;2023-11-19T03:02:40;7.35;;;2.70;;
11596;SDS011;5854;48.072;16.286;2023-11-19T03:05:11;3.72;;;3.42;;
11596;SDS011;5854;48.072;16.286;2023-11-19T03:07:40;4.07;;;3.75;;
11596;SDS011;5854;48.072;16.286;2023-11-19T03:10:09;3.03;;;2.72;;
11596;SDS011;5854;48.072;16.286;2023-11-19T03:12:38;2.83;;;2.63;;
11596;SDS011;5854;48.072;16.286;2023-11-19T03:15:06;2.97;;;2.78;;
11596;SDS011;5854;48.072;16.286;2023-11-19T03:17:35;3.40;;;3.20;;
11596;SDS011;5854;48.072;16.286;2023-11-19T03:20:05;3.15;;;2.95;;
11596;SDS011;5854;48.072;16.286;2023-11-19T03:22:36;2.92;;;2.72;;
11596;SDS011;5854;48.072;16.286;2023-11-19T03:25:04;3.00;;;2.80;;
11596;SDS011;5854;48.072;16.286;2023-11-19T03:27:33;2.97;;;2.75;;
11596;SDS011;5854;48.072;16.286;2023-11-19T03:30:01;2.28;;;2.13;;
11596;SDS011;5854;48.072;16.286;2023-11-19T03:32:29;2.50;;;2.40;;
11596;SDS011;5854;48.072;16.286;2023-11-19T03:34:58;3.03;;;2.83;;
11596;SDS011;5854;48.072;16.286;2023-11-19T03:37:27;3.05;;;2.75;;
11596;SDS011;5854;48.072;16.286;2023-11-19T03:39:54;3.65;;;3.45;;
11596;SDS011;5854;48.072;16.286;2023-11-19T03:42:24;7.70;;;2.40;;
11596;SDS011;5854;48.072;16.286;2023-11-19T03:44:52;3.97;;;3.67;;
11596;SDS011;5854;48.072;16.286;2023-11-19T03:47:19;2.70;;;2.40;;
11596;SDS011;5854;48.072;16.286;2023-11-19T03:49:47;2.83;;;2.63;;
11596;SDS011;5854;48.072;16.286;2023-11-19T03:52:15;3.35;;;3.15;;
11596;SDS011;5854;48.072;16.286;2023-11-19T03:54:44;3.67;;;3.35;;
11596;SDS011;5854;48.072;16.286;2023-11-19T03:57:12;3.65;;;3.35;;
11596;SDS011;5854;48.072;16.286;2023-11-19T03:59:40;3.95;;;3.35;;
11596;SDS011;5854;48.072;16.286;2023-11-19T04:02:08;3.53;;;3.33;;
11596;SDS011;5854;48.072;16.286;2023-11-19T04:04:35;2.92;;;2.72;;
11596;SDS011;5854;48.072;16.286;2023-11-19T04:07:03;3.75;;;3.45;;
11596;SDS011;5854;48.072;16.286;2023-11-19T04:09:31;3.40;;;3.17;;
11596;SDS011;5854;48.072;16.286;2023-11-19T04:12:00;4.03;;;3.72;;
11596;SDS011;5854;48.072;16.286;2023-11-19T04:14:27;3.22;;;3.03;;
11596;SDS011;5854;48.072;16.286;2023-11-19T04:16:54;3.40;;;3.08;;
11596;SDS011;5854;48.072;16.286;2023-11-19T04:19:21;2.85;;;2.65;;
11596;SDS011;5854;48.072;16.286;2023-11-19T04:21:49;3.90;;;3.63;;
11596;SDS011;5854;48.072;16.286;2023-11-19T04:24:17;2.88;;;2.78;;
11596;SDS011;5854;48.072;16.286;2023-11-19T04:26:44;3.13;;;2.92;;
11596;SDS011;5854;48.072;16.286;2023-11-19T04:29:14;3.55;;;3.03;;
11596;SDS011;5854;48.072;16.286;2023-11-19T04:31:43;3.13;;;2.92;;
11596;SDS011;5854;48.072;16.286;2023-11-19T04:34:10;4.03;;;3.78;;
11596;SDS011;5854;48.072;16.286;2023-11-19T04:36:38;4.18;;;3.83;;
11596;SDS011;5854;48.072;16.286;2023-11-19T04:39:05;3.53;;;3.33;;
11596;SDS011;5854;48.072;16.286;2023-11-19T04:41:41;4.93;;;4.13;;
11596;SDS011;5854;48.072;16.286;2023-11-19T04:44:14;4.05;;;3.50;;
11596;SDS011;5854;48.072;16.286;2023-11-19T04:46:42;4.85;;;4.53;;
11596;SDS011;5854;48.072;16.286;2023-11-19T04:49:10;4.60;;;3.25;;
11596;SDS011;5854;48.072;16.286;2023-11-19T04:51:38;4.10;;;3.80;;
11596;SDS011;5854;48.072;16.286;2023-11-19T04:54:07;4.57;;;4.20;;
11596;SDS011;5854;48.072;16.286;2023-11-19T04:56:34;4.20;;;3.90;;
11596;SDS011;5854;48.072;16.286;2023-11-19T04:59:02;4.90;;;4.53;;
11596;SDS011;5854;48.072;16.286;2023-11-19T05:01:32;3.50;;;3.28;;
11596;SDS011;5854;48.072;16.286;2023-11-19T05:03:59;3.53;;;3.33;;
11596;SDS011;5854;48.072;16.286;2023-11-19T05:06:28;3.67;;;3.40;;
11596;SDS011;5854;48.072;16.286;2023-11-19T05:08:55;4.20;;;3.90;;
11596;SDS011;5854;48.072;16.286;2023-11-19T05:11:26;3.90;;;3.60;;
11596;SDS011;5854;48.072;16.286;2023-11-19T05:13:53;4.03;;;3.72;;
11596;SDS011;5854;48.072;16.286;2023-11-19T05:16:20;4.38;;;3.97;;
11596;SDS011;5854;48.072;16.286;2023-11-19T05:18:48;3.80;;;3.50;;
11596;SDS011;5854;48.072;16.286;2023-11-19T05:21:16;3.20;;;3.00;;
11596;SDS011;5854;48.072;16.286;2023-11-19T05:23:43;3.88;;;3.40;;
11596;SDS011;5854;48.072;16.286;2023-11-19T05:26:16;3.95;;;3.60;;
11596;SDS011;5854;48.072;16.286;2023-11-19T05:28:45;7.28;;;3.58;;
11596;SDS011;5854;48.072;16.286;2023-11-19T05:31:12;3.95;;;3.50;;
11596;SDS011;5854;48.072;16.286;2023-11-19T05:33:39;4.00;;;3.70;;
11596;SDS011;5854;48.072;16.286;2023-11-19T05:36:08;4.25;;;3.28;;
11596;SDS011;5854;48.072;16.286;2023-11-19T05:38:37;3.40;;;3.20;;
11596;SDS011;5854;48.072;16.286;2023-11-19T05:41:05;3.35;;;3.15;;
11596;SDS011;5854;48.072;16.286;2023-11-19T05:43:32;2.80;;;2.60;;
11596;SDS011;5854;48.072;16.286;2023-11-19T05:46:00;2.55;;;2.35;;
11596;SDS011;5854;48.072;16.286;2023-11-19T05:48:27;2.83;;;2.45;;
11596;SDS011;5854;48.072;16.286;2023-11-19T05:50:54;4.45;;;2.60;;
11596;SDS011;5854;48.072;16.286;2023-11-19T05:53:23;2.90;;;2.70;;
11596;SDS011;5854;48.072;16.286;2023-11-19T05:55:50;2.92;;;2.72;;
11596;SDS011;5854;48.072;16.286;2023-11-19T05:58:22;3.28;;;3.08;;
11596;SDS011;5854;48.072;16.286;2023-11-19T06:00:53;3.25;;;3.05;;
11596;SDS011;5854;48.072;16.286;2023-11-19T06:03:21;5.55;;;3.10;;
11596;SDS011;5854;48.072;16.286;2023-11-19T06:05:48;4.57;;;3.72;;
11596;SDS011;5854;48.072;16.286;2023-11-19T06:08:16;6.25;;;4.65;;
11596;SDS011;5854;48.072;16.286;2023-11-19T06:10:46;7.03;;;5.10;;
11596;SDS011;5854;48.072;16.286;2023-11-19T06:13:15;4.95;;;4.55;;
11596;SDS011;5854;48.072;16.286;2023-11-19T06:15:43;9.25;;;5.47;;
11596;SDS011;5854;48.072;16.286;2023-11-19T06:18:10;6.40;;;4.28;;
11596;SDS011;5854;48.072;16.286;2023-11-19T06:20:37;4.90;;;4.50;;
11596;SDS011;5854;48.072;16.286;2023-11-19T06:23:05;3.22;;;3.03;;
11596;SDS011;5854;48.072;16.286;2023-11-19T06:25:32;5.10;;;4.60;;
11596;SDS011;5854;48.072;16.286;2023-11-19T06:28:02;5.88;;;5.47;;
11596;SDS011;5854;48.072;16.286;2023-11-19T06:30:29;6.00;;;5.50;;
11596;SDS011;5854;48.072;16.286;2023-11-19T06:32:57;7.78;;;5.70;;
11596;SDS011;5854;48.072;16.286;2023-11-19T06:35:25;5.88;;;4.85;;
11596;SDS011;5854;48.072;16.286;2023-11-19T06:37:54;5.45;;;4.53;;
11596;SDS011;5854;48.072;16.286;2023-11-19T06:40:21;4.80;;;4.50;;
11596;SDS011;5854;48.072;16.286;2023-11-19T06:42:48;5.43;;;4.80;;
11596;SDS011;5854;48.072;16.286;2023-11-19T06:45:16;4.95;;;4.60;;
11596;SDS011;5854;48.072;16.286;2023-11-19T06:47:44;4.85;;;4.35;;
11596;SDS011;5854;48.072;16.286;2023-11-19T06:50:11;4.20;;;3.90;;
11596;SDS011;5854;48.072;16.286;2023-11-19T06:52:40;5.22;;;4.82;;
11596;SDS011;5854;48.072;16.286;2023-11-19T06:55:07;3.83;;;3.47;;
11596;SDS011;5854;48.072;16.286;2023-11-19T06:57:35;4.55;;;4.13;;
11596;SDS011;5854;48.072;16.286;2023-11-19T07:00:03;3.95;;;3.58;;
11596;SDS011;5854;48.072;16.286;2023-11-19T07:02:34;3.45;;;2.97;;
11596;SDS011;5854;48.072;16.286;2023-11-19T07:05:01;3.35;;;3.08;;
11596;SDS011;5854;48.072;16.286;2023-11-19T07:07:30;3.92;;;3.33;;
11596;SDS011;5854;48.072;16.286;2023-11-19T07:09:57;3.90;;;3.53;;
11596;SDS011;5854;48.072;16.286;2023-11-19T07:12:24;3.40;;;3.20;;
11596;SDS011;5854;48.072;16.286;2023-11-19T07:14:52;3.33;;;3.13;;
11596;SDS011;5854;48.072;16.286;2023-11-19T07:17:20;7.00;;;3.42;;
11596;SDS011;5854;48.072;16.286;2023-11-19T07:19:50;5.93;;;3.92;;
11596;SDS011;5854;48.072;16.286;2023-11-19T07:22:17;4.75;;;4.35;;
11596;SDS011;5854;48.072;16.286;2023-11-19T07:24:45;5.05;;;4.60;;
11596;SDS011;5854;48.072;16.286;2023-11-19T07:27:12;4.68;;;4.22;;
11596;SDS011;5854;48.072;16.286;2023-11-19T07:29:40;5.53;;;5.13;;
11596;SDS011;5854;48.072;16.286;2023-11-19T07:32:10;4.70;;;4.25;;
11596;SDS011;5854;48.072;16.286;2023-11-19T07:34:38;4.00;;;3.80;;
11596;SDS011;5854;48.072;16.286;2023-11-19T07:37:07;3.67;;;3.38;;
11596;SDS011;5854;48.072;16.286;2023-11-19T07:39:34;4.07;;;3.72;;
11596;SDS011;5854;48.072;16.286;2023-11-19T07:42:03;4.50;;;4.18;;
11596;SDS011;5854;48.072;16.286;2023-11-19T07:44:30;3.42;;;3.13;;
11596;SDS011;5854;48.072;16.286;2023-11-19T07:46:57;4.22;;;3.83;;
11596;SDS011;5854;48.072;16.286;2023-11-19T07:49:24;4.25;;;3.92;;
11596;SDS011;5854;48.072;16.286;2023-11-19T07:51:52;4.85;;;4.38;;
11596;SDS011;5854;48.072;16.286;2023-11-19T07:54:20;4.35;;;4.05;;
11596;SDS011;5854;48.072;16.286;2023-11-19T07:56:47;4.18;;;3.55;;
11596;SDS011;5854;48.072;16.286;2023-11-19T07:59:15;4.05;;;3.75;;
11596;SDS011;5854;48.072;16.286;2023-11-19T08:01:42;4.47;;;4.00;;
11596;SDS011;5854;48.072;16.286;2023-11-19T08:04:09;4.78;;;4.40;;
11596;SDS011;5854;48.072;16.286;2023-11-19T08:06:37;5.22;;;4.75;;
11596;SDS011;5854;48.072;16.286;2023-11-19T08:09:04;4.35;;;4.03;;
11596;SDS011;5854;48.072;16.286;2023-11-19T08:11:39;4.32;;;4.03;;
11596;SDS011;5854;48.072;16.286;2023-11-19T08:14:07;4.43;;;4.07;;
11596;SDS011;5854;48.072;16.286;2023-11-19T08:16:34;4.65;;;3.90;;
11596;SDS011;5854;48.072;16.286;2023-11-19T08:19:02;4.90;;;3.92;;
11596;SDS011;5854;48.072;16.286;2023-11-19T08:21:30;4.38;;;4.07;;
11596;SDS011;5854;48.072;16.286;2023-11-19T08:23:59;4.50;;;3.72;;
11596;SDS011;5854;48.072;16.286;2023-11-19T08:26:26;4.75;;;4.22;;
11596;SDS011;5854;48.072;16.286;2023-11-19T08:28:54;4.75;;;4.13;;
11596;SDS011;5854;48.072;16.286;2023-11-19T08:31:24;4.18;;;3.88;;
11596;SDS011;5854;48.072;16.286;2023-11-19T08:33:51;3.58;;;3.28;;
11596;SDS011;5854;48.072;16.286;2023-11-19T08:36:18;3.78;;;3.47;;
11596;SDS011;5854;48.072;16.286;2023-11-19T08:38:46;4.82;;;4.43;;
11596;SDS011;5854;48.072;16.286;2023-11-19T08:41:13;4.63;;;3.97;;
11596;SDS011;5854;48.072;16.286;2023-11-19T08:43:42;5.65;;;5.13;;
11596;SDS011;5854;48.072;16.286;2023-11-19T08:46:11;6.30;;;5.80;;
11596;SDS011;5854;48.072;16.286;2023-11-19T08:48:38;3.05;;;2.85;;
11596;SDS011;5854;48.072;16.286;2023-11-19T08:51:06;8.00;;;3.70;;
11596;SDS011;5854;48.072;16.286;2023-11-19T08:53:33;4.45;;;4.15;;
11596;SDS011;5854;48.072;16.286;2023-11-19T08:56:01;7.30;;;6.55;;
11596;SDS011;5854;48.072;16.286;2023-11-19T08:58:28;6.72;;;5.97;;
11596;SDS011;5854;48.072;16.286;2023-11-19T09:00:55;4.63;;;4.20;;
11596;SDS011;5854;48.072;16.286;2023-11-19T09:03:24;4.70;;;4.30;;
11596;SDS011;5854;48.072;16.286;2023-11-19T09:05:52;4.45;;;4.15;;
11596;SDS011;5854;48.072;16.286;2023-11-19T09:08:19;4.90;;;3.83;;
11596;SDS011;5854;48.072;16.286;2023-11-19T09:10:46;4.45;;;4.07;;
11596;SDS011;5854;48.072;16.286;2023-11-19T09:13:13;6.00;;;4.15;;
11596;SDS011;5854;48.072;16.286;2023-11-19T09:15:41;4.00;;;3.70;;
11596;SDS011;5854;48.072;16.286;2023-11-19T09:18:08;5.57;;;5.18;;
11596;SDS011;5854;48.072;16.286;2023-11-19T09:20:37;4.22;;;3.92;;
11596;SDS011;5854;48.072;16.286;2023-11-19T09:23:04;5.47;;;4.40;;
11596;SDS011;5854;48.072;16.286;2023-11-19T09:25:31;5.13;;;4.72;;
11596;SDS011;5854;48.072;16.286;2023-11-19T09:27:59;3.42;;;3.22;;
11596;SDS011;5854;48.072;16.286;2023-11-19T09:30:26;4.95;;;4.45;;
11596;SDS011;5854;48.072;16.286;2023-11-19T09:32:54;3.17;;;2.97;;
11596;SDS011;5854;48.072;16.286;2023-11-19T09:35:21;4.75;;;4.35;;
11596;SDS011;5854;48.072;16.286;2023-11-19T09:37:50;4.18;;;3.85;;
11596;SDS011;5854;48.072;16.286;2023-11-19T09:40:17;6.32;;;5.15;;
11596;SDS011;5854;48.072;16.286;2023-11-19T09:42:45;8.95;;;6.25;;
11596;SDS011;5854;48.072;16.286;2023-11-19T09:45:14;11.38;;;3.78;;
11596;SDS011;5854;48.072;16.286;2023-11-19T09:47:43;5.78;;;5.32;;
11596;SDS011;5854;48.072;16.286;2023-11-19T09:50:13;5.57;;;5.18;;
11596;SDS011;5854;48.072;16.286;2023-11-19T09:52:43;6.03;;;5.60;;
11596;SDS011;5854;48.072;16.286;2023-11-19T09:55:12;4.72;;;4.40;;
11596;SDS011;5854;48.072;16.286;2023-11-19T09:57:40;3.92;;;3.63;;
11596;SDS011;5854;48.072;16.286;2023-11-19T10:00:09;3.60;;;3.13;;
11596;SDS011;5854;48.072;16.286;2023-11-19T10:02:38;10.77;;;4.07;;
11596;SDS011;5854;48.072;16.286;2023-11-19T10:05:07;3.70;;;3.42;;
11596;SDS011;5854;48.072;16.286;2023-11-19T10:07:35;3.60;;;3.40;;
11596;SDS011;5854;48.072;16.286;2023-11-19T10:10:03;4.72;;;4.32;;
11596;SDS011;5854;48.072;16.286;2023-11-19T10:12:34;3.72;;;3.42;;
11596;SDS011;5854;48.072;16.286;2023-11-19T10:15:01;4.53;;;4.22;;
11596;SDS011;5854;48.072;16.286;2023-11-19T10:17:28;4.45;;;4.15;;
11596;SDS011;5854;48.072;16.286;2023-11-19T10:19:59;7.22;;;4.50;;
11596;SDS011;5854;48.072;16.286;2023-11-19T10:22:30;4.20;;;3.90;;
11596;SDS011;5854;48.072;16.286;2023-11-19T10:25:04;5.72;;;4.88;;
11596;SDS011;5854;48.072;16.286;2023-11-19T10:27:49;4.95;;;4.53;;
11596;SDS011;5854;48.072;16.286;2023-11-19T10:30:17;6.40;;;5.75;;
11596;SDS011;5854;48.072;16.286;2023-11-19T10:33:01;16.48;;;7.82;;
11596;SDS011;5854;48.072;16.286;2023-11-19T10:35:33;6.90;;;5.05;;
11596;SDS011;5854;48.072;16.286;2023-11-19T10:38:17;4.95;;;4.55;;
11596;SDS011;5854;48.072;16.286;2023-11-19T10:40:44;4.97;;;4.60;;
11596;SDS011;5854;48.072;16.286;2023-11-19T10:43:13;7.88;;;7.05;;
11596;SDS011;5854;48.072;16.286;2023-11-19T10:45:41;5.50;;;5.00;;
11596;SDS011;5854;48.072;16.286;2023-11-19T10:48:08;3.75;;;3.55;;
11596;SDS011;5854;48.072;16.286;2023-11-19T10:50:38;8.95;;;7.18;;
11596;SDS011;5854;48.072;16.286;2023-11-19T10:53:10;4.22;;;3.83;;
11596;SDS011;5854;48.072;16.286;2023-11-19T10:55:39;4.57;;;3.95;;
11596;SDS011;5854;48.072;16.286;2023-11-19T10:58:07;4.15;;;3.80;;
11596;SDS011;5854;48.072;16.286;2023-11-19T11:00:39;4.95;;;4.53;;
11596;SDS011;5854;48.072;16.286;2023-11-19T11:03:11;5.75;;;5.35;;
11596;SDS011;5854;48.072;16.286;2023-11-19T11:05:44;4.72;;;4.30;;
11596;SDS011;5854;48.072;16.286;2023-11-19T11:08:14;5.55;;;3.40;;
11596;SDS011;5854;48.072;16.286;2023-11-19T11:10:42;6.68;;;5.70;;
11596;SDS011;5854;48.072;16.286;2023-11-19T11:13:11;5.75;;;5.35;;
11596;SDS011;5854;48.072;16.286;2023-11-19T11:15:42;5.70;;;5.20;;
11596;SDS011;5854;48.072;16.286;2023-11-19T11:18:11;5.43;;;4.93;;
11596;SDS011;5854;48.072;16.286;2023-11-19T11:20:39;6.95;;;5.38;;
11596;SDS011;5854;48.072;16.286;2023-11-19T11:26:24;5.22;;;4.47;;
11596;SDS011;5854;48.072;16.286;2023-11-19T11:29:26;4.97;;;4.60;;
11596;SDS011;5854;48.072;16.286;2023-11-19T11:32:08;7.03;;;6.05;;
11596;SDS011;5854;48.072;16.286;2023-11-19T11:34:51;6.00;;;5.50;;
11596;SDS011;5854;48.072;16.286;2023-11-19T11:37:32;5.05;;;4.72;;
11596;SDS011;5854;48.072;16.286;2023-11-19T11:40:03;8.35;;;5.50;;
11596;SDS011;5854;48.072;16.286;2023-11-19T11:42:35;10.95;;;6.75;;
11596;SDS011;5854;48.072;16.286;2023-11-19T11:45:04;8.30;;;7.55;;
11596;SDS011;5854;48.072;16.286;2023-11-19T11:50:55;6.32;;;5.43;;
11596;SDS011;5854;48.072;16.286;2023-11-19T11:53:25;6.57;;;6.03;;
11596;SDS011;5854;48.072;16.286;2023-11-19T11:55:53;8.02;;;6.82;;
11596;SDS011;5854;48.072;16.286;2023-11-19T12:01:10;6.00;;;5.40;;
11596;SDS011;5854;48.072;16.286;2023-11-19T12:03:47;7.05;;;5.72;;
11596;SDS011;5854;48.072;16.286;2023-11-19T12:06:20;9.75;;;6.53;;
11596;SDS011;5854;48.072;16.286;2023-11-19T12:08:46;7.30;;;6.60;;
11596;SDS011;5854;48.072;16.286;2023-11-19T12:11:13;5.68;;;5.15;;
11596;SDS011;5854;48.072;16.286;2023-11-19T12:13:52;5.82;;;5.32;;
11596;SDS011;5854;48.072;16.286;2023-11-19T12:16:23;8.90;;;5.55;;
11596;SDS011;5854;48.072;16.286;2023-11-19T12:18:54;6.50;;;5.90;;
11596;SDS011;5854;48.072;16.286;2023-11-19T12:21:28;5.40;;;4.63;;
11596;SDS011;5854;48.072;16.286;2023-11-19T12:23:57;9.65;;;5.95;;
11596;SDS011;5854;48.072;16.286;2023-11-19T12:26:38;6.28;;;5.57;;
11596;SDS011;5854;48.072;16.286;2023-11-19T12:29:06;8.27;;;6.50;;
11596;SDS011;5854;48.072;16.286;2023-11-19T12:31:34;6.85;;;6.32;;
11596;SDS011;5854;48.072;16.286;2023-11-19T12:34:11;5.72;;;5.30;;
11596;SDS011;5854;48.072;16.286;2023-11-19T12:36:39;5.63;;;5.13;;
11596;SDS011;5854;48.072;16.286;2023-11-19T12:39:07;6.13;;;5.72;;
11596;SDS011;5854;48.072;16.286;2023-11-19T12:41:51;15.25;;;6.38;;
11596;SDS011;5854;48.072;16.286;2023-11-19T12:44:19;6.68;;;6.15;;
11596;SDS011;5854;48.072;16.286;2023-11-19T12:46:58;5.80;;;5.25;;
11596;SDS011;5854;48.072;16.286;2023-11-19T12:49:28;5.78;;;5.28;;
11596;SDS011;5854;48.072;16.286;2023-11-19T12:51:56;8.18;;;6.88;;
11596;SDS011;5854;48.072;16.286;2023-11-19T12:54:31;6.82;;;6.22;;
11596;SDS011;5854;48.072;16.286;2023-11-19T12:57:00;8.73;;;7.82;;
11596;SDS011;5854;48.072;16.286;2023-11-19T12:59:27;7.38;;;6.70;;
11596;SDS011;5854;48.072;16.286;2023-11-19T13:01:55;8.23;;;6.70;;
11596;SDS011;5854;48.072;16.286;2023-11-19T13:04:23;7.18;;;6.43;;
11596;SDS011;5854;48.072;16.286;2023-11-19T13:06:56;7.50;;;6.65;;
11596;SDS011;5854;48.072;16.286;2023-11-19T13:09:24;8.57;;;6.65;;
11596;SDS011;5854;48.072;16.286;2023-11-19T13:11:53;6.40;;;5.80;;
11596;SDS011;5854;48.072;16.286;2023-11-19T13:14:21;9.20;;;6.93;;
11596;SDS011;5854;48.072;16.286;2023-11-19T13:16:49;7.40;;;6.57;;
11596;SDS011;5854;48.072;16.286;2023-11-19T13:19:19;7.40;;;6.78;;
11596;SDS011;5854;48.072;16.286;2023-11-19T13:21:50;10.30;;;7.65;;
11596;SDS011;5854;48.072;16.286;2023-11-19T13:24:18;9.75;;;7.88;;
11596;SDS011;5854;48.072;16.286;2023-11-19T13:26:46;7.50;;;6.90;;
11596;SDS011;5854;48.072;16.286;2023-11-19T13:29:13;8.95;;;7.53;;
11596;SDS011;5854;48.072;16.286;2023-11-19T13:31:41;7.40;;;6.28;;
11596;SDS011;5854;48.072;16.286;2023-11-19T13:34:09;8.00;;;7.20;;
11596;SDS011;5854;48.072;16.286;2023-11-19T13:36:37;6.97;;;6.25;;
11596;SDS011;5854;48.072;16.286;2023-11-19T13:39:07;6.47;;;5.88;;
11596;SDS011;5854;48.072;16.286;2023-11-19T13:41:34;7.03;;;6.32;;
11596;SDS011;5854;48.072;16.286;2023-11-19T13:44:02;6.20;;;5.60;;
11596;SDS011;5854;48.072;16.286;2023-11-19T13:46:30;5.38;;;4.95;;
11596;SDS011;5854;48.072;16.286;2023-11-19T13:48:57;6.55;;;5.72;;
11596;SDS011;5854;48.072;16.286;2023-11-19T13:51:25;10.70;;;7.93;;
11596;SDS011;5854;48.072;16.286;2023-11-19T13:53:53;7.50;;;6.72;;
11596;SDS011;5854;48.072;16.286;2023-11-19T13:56:22;9.85;;;6.68;;
11596;SDS011;5854;48.072;16.286;2023-11-19T13:58:50;8.70;;;7.10;;
11596;SDS011;5854;48.072;16.286;2023-11-19T14:01:18;7.15;;;6.45;;
11596;SDS011;5854;48.072;16.286;2023-11-19T14:03:45;7.75;;;7.00;;
11596;SDS011;5854;48.072;16.286;2023-11-19T14:06:13;7.57;;;6.88;;
11596;SDS011;5854;48.072;16.286;2023-11-19T14:08:40;6.82;;;6.13;;
11596;SDS011;5854;48.072;16.286;2023-11-19T14:11:08;8.07;;;7.35;;
11596;SDS011;5854;48.072;16.286;2023-11-19T14:13:37;8.73;;;7.50;;
11596;SDS011;5854;48.072;16.286;2023-11-19T14:16:04;8.00;;;7.25;;
11596;SDS011;5854;48.072;16.286;2023-11-19T14:18:33;9.38;;;7.15;;
11596;SDS011;5854;48.072;16.286;2023-11-19T14:21:01;10.82;;;8.23;;
11596;SDS011;5854;48.072;16.286;2023-11-19T14:23:28;9.93;;;8.38;;
11596;SDS011;5854;48.072;16.286;2023-11-19T14:25:55;10.90;;;7.85;;
11596;SDS011;5854;48.072;16.286;2023-11-19T14:28:23;11.13;;;8.65;;
11596;SDS011;5854;48.072;16.286;2023-11-19T14:30:52;9.75;;;7.70;;
11596;SDS011;5854;48.072;16.286;2023-11-19T14:33:22;11.88;;;7.97;;
11596;SDS011;5854;48.072;16.286;2023-11-19T14:35:49;11.80;;;9.70;;
11596;SDS011;5854;48.072;16.286;2023-11-19T14:38:17;10.48;;;8.90;;
11596;SDS011;5854;48.072;16.286;2023-11-19T14:40:44;7.80;;;7.00;;
11596;SDS011;5854;48.072;16.286;2023-11-19T14:43:11;14.52;;;10.00;;
11596;SDS011;5854;48.072;16.286;2023-11-19T14:45:40;11.82;;;7.97;;
11596;SDS011;5854;48.072;16.286;2023-11-19T14:48:10;7.90;;;7.15;;
11596;SDS011;5854;48.072;16.286;2023-11-19T14:50:37;16.52;;;8.85;;
11596;SDS011;5854;48.072;16.286;2023-11-19T14:53:04;19.02;;;9.32;;
11596;SDS011;5854;48.072;16.286;2023-11-19T14:55:31;13.30;;;9.48;;
11596;SDS011;5854;48.072;16.286;2023-11-19T14:57:58;9.98;;;8.15;;
11596;SDS011;5854;48.072;16.286;2023-11-19T15:00:26;12.45;;;9.75;;
11596;SDS011;5854;48.072;16.286;2023-11-19T15:02:54;11.60;;;9.40;;
11596;SDS011;5854;48.072;16.286;2023-11-19T15:05:22;10.88;;;9.25;;
11596;SDS011;5854;48.072;16.286;2023-11-19T15:07:49;9.80;;;8.20;;